createdAt,value
2019-04-28T00:00:03.653Z,1013.9188
2019-04-28T00:00:15.493Z,1013.9385
2019-04-28T00:01:03.655Z,1013.9392
2019-04-28T00:01:15.492Z,1013.9559
2019-04-28T00:02:14.677Z,1013.9406
2019-04-28T00:03:13.871Z,1013.9898
2019-04-28T00:03:25.700Z,1013.9885
2019-04-28T00:04:24.894Z,1014.0268
2019-04-28T00:05:24.080Z,1014.0349
2019-04-28T00:06:35.127Z,1014.0589
2019-04-28T00:07:34.326Z,1014.0472
2019-04-28T00:08:45.385Z,1014.0443
2019-04-28T00:09:44.567Z,1014.03
2019-04-28T00:10:43.787Z,1014.0054
2019-04-28T00:10:55.628Z,1014.0054
2019-04-28T00:11:54.826Z,1014.0218
2019-04-28T00:12:54.023Z,1014.0054
2019-04-28T00:14:05.067Z,1014.0345
2019-04-28T00:15:04.258Z,1014.0231
2019-04-28T00:16:15.296Z,1014.0186
2019-04-28T00:17:14.506Z,1014.0153
2019-04-28T00:18:13.682Z,1014.0165
2019-04-28T00:18:25.556Z,1014.0673
2019-04-28T00:19:24.768Z,1014.0541
2019-04-28T00:20:23.991Z,1014.0051
2019-04-28T00:21:35.029Z,1014.0629
2019-04-28T00:22:34.225Z,1014.0691
2019-04-28T00:23:45.252Z,1014.0598
2019-04-28T00:24:44.497Z,1014.044
2019-04-28T00:25:43.689Z,1014.0842
2019-04-28T00:25:55.523Z,1014.0695
2019-04-28T00:26:54.713Z,1014.0543
2019-04-28T00:27:53.919Z,1014.1068
2019-04-28T00:29:04.951Z,1014.1176
2019-04-28T00:30:04.145Z,1014.112
2019-04-28T00:31:15.162Z,1014.1315
2019-04-28T00:32:14.356Z,1014.1411
2019-04-28T00:33:25.373Z,1014.1472
2019-04-28T00:34:24.611Z,1014.1923
2019-04-28T00:35:23.791Z,1014.207
2019-04-28T00:35:35.632Z,1014.2002
2019-04-28T00:36:34.849Z,1014.2017
2019-04-28T00:37:34.039Z,1014.1838
2019-04-28T00:38:45.037Z,1014.2001
2019-04-28T00:39:44.257Z,1014.2079
2019-04-28T00:40:55.268Z,1014.1583
2019-04-28T00:41:54.491Z,1014.1272
2019-04-28T00:42:53.691Z,1014.122
2019-04-28T00:43:05.525Z,1014.1194
2019-04-28T00:44:04.714Z,1014.121
2019-04-28T00:45:03.889Z,1014.1123
2019-04-28T00:45:15.722Z,1014.1315
2019-04-28T00:46:14.913Z,1014.0931
2019-04-28T00:47:14.177Z,1014.1409
2019-04-28T00:48:25.215Z,1014.1115
2019-04-28T00:49:25.408Z,1014.1138
2019-04-28T00:50:24.603Z,1014.1465
2019-04-28T00:51:23.822Z,1014.1486
2019-04-28T00:51:35.663Z,1014.1408
2019-04-28T00:52:34.895Z,1014.0973
2019-04-28T00:53:34.098Z,1014.1012
2019-04-28T00:54:45.131Z,1014.1314
2019-04-28T00:55:44.345Z,1014.0945
2019-04-28T00:56:43.659Z,1014.0695
2019-04-28T00:56:55.494Z,1014.0515
2019-04-28T00:57:54.695Z,1014.0603
2019-04-28T00:58:53.903Z,1014.0775
2019-04-28T01:00:04.920Z,1014.049
2019-04-28T01:01:04.133Z,1014.1042
2019-04-28T01:02:15.178Z,1014.1137
2019-04-28T01:03:14.405Z,1014.1304
2019-04-28T01:04:25.438Z,1014.1646
2019-04-28T01:05:24.629Z,1014.1928
2019-04-28T01:06:23.816Z,1014.2183
2019-04-28T01:06:35.658Z,1014.2105
2019-04-28T01:07:34.851Z,1014.2471
2019-04-28T01:08:34.079Z,1014.2257
2019-04-28T01:09:45.143Z,1014.2689
2019-04-28T01:10:44.339Z,1014.2232
2019-04-28T01:11:55.366Z,1014.3211
2019-04-28T01:12:54.554Z,1014.3142
2019-04-28T01:13:53.868Z,1014.294
2019-04-28T01:14:05.716Z,1014.289
2019-04-28T01:15:05.022Z,1014.2848
2019-04-28T01:16:04.106Z,1014.2348
2019-04-28T01:17:15.137Z,1014.2189
2019-04-28T01:18:14.371Z,1014.2093
2019-04-28T01:19:25.406Z,1014.238
2019-04-28T01:20:24.633Z,1014.2243
2019-04-28T01:21:23.835Z,1014.2028
2019-04-28T01:21:35.675Z,1014.2187
2019-04-28T01:22:34.860Z,1014.2184
2019-04-28T01:23:34.047Z,1014.2589
2019-04-28T01:24:45.098Z,1014.2157
2019-04-28T01:25:44.324Z,1014.2425
2019-04-28T01:26:55.382Z,1014.2739
2019-04-28T01:27:54.568Z,1014.3013
2019-04-28T01:28:53.758Z,1014.2238
2019-04-28T01:29:05.601Z,1014.3379
2019-04-28T01:30:08.580Z,1014.2823
2019-04-28T01:31:05.037Z,1014.3035
2019-04-28T01:32:04.240Z,1014.2644
2019-04-28T01:33:15.259Z,1014.2644
2019-04-28T01:34:14.454Z,1014.189
2019-04-28T01:35:13.664Z,1014.1907
2019-04-28T01:35:25.499Z,1014.2463
2019-04-28T01:36:24.705Z,1014.2185
2019-04-28T01:37:23.890Z,1014.2006
2019-04-28T01:38:24.082Z,1014.1953
2019-04-28T01:39:24.301Z,1014.1704
2019-04-28T01:40:23.632Z,1014.1802
2019-04-28T01:40:35.465Z,1014.1724
2019-04-28T01:41:34.680Z,1014.1724
2019-04-28T01:42:33.878Z,1014.1864
2019-04-28T01:42:45.714Z,1014.2031
2019-04-28T01:43:44.919Z,1014.2669
2019-04-28T01:44:44.144Z,1014.2856
2019-04-28T01:45:55.148Z,1014.3314
2019-04-28T01:46:54.350Z,1014.3432
2019-04-28T01:48:05.397Z,1014.3418
2019-04-28T01:49:04.592Z,1014.337
2019-04-28T01:50:04.864Z,1014.3684
2019-04-28T01:51:04.060Z,1014.3962
2019-04-28T01:52:15.090Z,1014.46
2019-04-28T01:53:14.275Z,1014.4558
2019-04-28T01:54:25.310Z,1014.5081
2019-04-28T01:55:24.548Z,1014.5215
2019-04-28T01:56:24.720Z,1014.496
2019-04-28T01:57:23.926Z,1014.4937
2019-04-28T01:58:34.957Z,1014.4741
2019-04-28T01:59:34.141Z,1014.4888
2019-04-28T02:00:45.312Z,1014.4973
2019-04-28T02:01:44.500Z,1014.481
2019-04-28T02:02:43.683Z,1014.4604
2019-04-28T02:02:55.515Z,1014.5307
2019-04-28T02:03:54.709Z,1014.4918
2019-04-28T02:04:53.921Z,1014.4676
2019-04-28T02:06:04.968Z,1014.5039
2019-04-28T02:07:04.169Z,1014.5059
2019-04-28T02:08:15.174Z,1014.5112
2019-04-28T02:09:14.388Z,1014.5328
2019-04-28T02:10:14.564Z,1014.5216
2019-04-28T02:11:13.760Z,1014.5628
2019-04-28T02:11:25.594Z,1014.5628
2019-04-28T02:12:24.913Z,1014.5906
2019-04-28T02:13:24.097Z,1014.6057
2019-04-28T02:14:35.126Z,1014.639
2019-04-28T02:15:34.326Z,1014.6504
2019-04-28T02:16:45.401Z,1014.6871
2019-04-28T02:17:33.738Z,1014.6799
2019-04-28T02:18:33.932Z,1014.6821
2019-04-28T02:19:44.954Z,1014.6635
2019-04-28T02:20:44.168Z,1014.7145
2019-04-28T02:21:55.271Z,1014.7135
2019-04-28T02:22:54.465Z,1014.7008
2019-04-28T02:23:53.652Z,1014.6804
2019-04-28T02:24:05.487Z,1014.7064
2019-04-28T02:25:04.692Z,1014.7086
2019-04-28T02:26:03.882Z,1014.7531
2019-04-28T02:26:15.720Z,1014.7298
2019-04-28T02:27:14.948Z,1014.7675
2019-04-28T02:28:14.166Z,1014.7678
2019-04-28T02:29:25.207Z,1014.8013
2019-04-28T02:30:40.890Z,1014.7445
2019-04-28T02:31:24.591Z,1014.769
2019-04-28T02:32:24.329Z,1014.7739
2019-04-28T02:33:34.932Z,1014.8018
2019-04-28T02:34:34.126Z,1014.8004
2019-04-28T02:35:45.140Z,1014.7873
2019-04-28T02:36:44.322Z,1014.8315
2019-04-28T02:37:55.370Z,1014.7811
2019-04-28T02:38:43.710Z,1014.8494
2019-04-28T02:38:55.542Z,1014.8446
2019-04-28T02:39:54.738Z,1014.8106
2019-04-28T02:40:53.951Z,1014.8429
2019-04-28T02:42:04.980Z,1014.8021
2019-04-28T02:43:04.147Z,1014.8654
2019-04-28T02:44:15.187Z,1014.8357
2019-04-28T02:45:14.371Z,1014.889
2019-04-28T02:46:25.387Z,1014.8887
2019-04-28T02:47:24.616Z,1014.8688
2019-04-28T02:48:23.806Z,1014.8378
2019-04-28T02:48:35.649Z,1014.823
2019-04-28T02:49:34.840Z,1014.8743
2019-04-28T02:50:34.018Z,1014.8495
2019-04-28T02:51:45.107Z,1014.8306
2019-04-28T02:52:44.302Z,1014.882
2019-04-28T02:53:55.334Z,1014.844
2019-04-28T02:54:54.517Z,1014.8352
2019-04-28T02:55:53.713Z,1014.8695
2019-04-28T02:56:05.537Z,1014.8806
2019-04-28T02:57:04.747Z,1014.8836
2019-04-28T02:58:03.995Z,1014.9274
2019-04-28T02:59:15.032Z,1014.9042
2019-04-28T03:00:14.224Z,1014.894
2019-04-28T03:01:26.574Z,1014.8601
2019-04-28T03:02:25.422Z,1014.9156
2019-04-28T03:03:24.641Z,1014.9143
2019-04-28T03:04:23.846Z,1014.8823
2019-04-28T03:04:35.680Z,1014.926
2019-04-28T03:05:34.885Z,1014.9338
2019-04-28T03:06:34.101Z,1014.9254
2019-04-28T03:07:45.169Z,1014.9669
2019-04-28T03:08:44.344Z,1014.9845
2019-04-28T03:09:55.367Z,1014.9773
2019-04-28T03:10:54.575Z,1014.9832
2019-04-28T03:11:54.763Z,1014.989
2019-04-28T03:12:54.009Z,1015.0079
2019-04-28T03:14:05.065Z,1015.0552
2019-04-28T03:15:04.263Z,1015.0123
2019-04-28T03:16:15.296Z,1015.0018
2019-04-28T03:17:14.475Z,1014.9978
2019-04-28T03:18:13.693Z,1015.0376
2019-04-28T03:19:13.922Z,1015.0445
2019-04-28T03:20:24.943Z,1015.0579
2019-04-28T03:21:24.140Z,1015.0448
2019-04-28T03:22:35.166Z,1015.0399
2019-04-28T03:23:34.509Z,1015.0673
2019-04-28T03:24:33.702Z,1015.048
2019-04-28T03:24:45.530Z,1015.0448
2019-04-28T03:25:44.711Z,1015.0529
2019-04-28T03:26:43.899Z,1015.0219
2019-04-28T03:27:54.938Z,1015.0412
2019-04-28T03:28:54.183Z,1015.0769
2019-04-28T03:30:05.229Z,1015.1043
2019-04-28T03:31:34.234Z,1015.0962
2019-04-28T03:32:24.534Z,1015.0828
2019-04-28T03:33:11.495Z,1015.1062
2019-04-28T03:34:05.152Z,1015.0801
2019-04-28T03:35:04.398Z,1015.1085
2019-04-28T03:36:15.963Z,1015.0947
2019-04-28T03:37:14.408Z,1015.056
2019-04-28T03:38:25.432Z,1015.0335
2019-04-28T03:39:24.622Z,1015.0585
2019-04-28T03:40:23.816Z,1015.0919
2019-04-28T03:40:35.651Z,1015.1017
2019-04-28T03:41:34.872Z,1015.0212
2019-04-28T03:42:34.045Z,1015.0354
2019-04-28T03:43:45.062Z,1015.0317
2019-04-28T03:44:44.399Z,1015.0574
2019-04-28T03:45:55.443Z,1015.0471
2019-04-28T03:46:54.657Z,1015.0424
2019-04-28T03:47:53.856Z,1015.0016
2019-04-28T03:48:05.685Z,1015.0114
2019-04-28T03:50:05.090Z,1014.9754
2019-04-28T03:51:04.301Z,1014.9958
2019-04-28T03:52:15.335Z,1015.0285
2019-04-28T03:53:14.525Z,1015.0437
2019-04-28T03:54:13.758Z,1015.0257
2019-04-28T03:54:25.601Z,1015.0015
2019-04-28T03:55:24.801Z,1015.0368
2019-04-28T03:56:23.984Z,1015.0837
2019-04-28T03:57:35.008Z,1015.0456
2019-04-28T03:58:34.196Z,1015.1362
2019-04-28T03:59:45.247Z,1015.0687
2019-04-28T04:00:44.430Z,1015.032
2019-04-28T04:01:55.083Z,1015.0882
2019-04-28T04:02:43.845Z,1015.0812
2019-04-28T04:02:55.688Z,1015.0668
2019-04-28T04:03:44.027Z,1015.0449
2019-04-28T04:04:55.202Z,1015.091
2019-04-28T04:05:54.418Z,1015.0567
2019-04-28T04:06:54.626Z,1015.1415
2019-04-28T04:07:53.819Z,1015.0834
2019-04-28T04:08:05.663Z,1015.0733
2019-04-28T04:09:04.861Z,1015.1345
2019-04-28T04:10:04.088Z,1015.0934
2019-04-28T04:11:15.112Z,1015.122
2019-04-28T04:12:14.449Z,1015.1187
2019-04-28T04:13:13.655Z,1015.0912
2019-04-28T04:13:25.495Z,1015.119
2019-04-28T04:14:24.707Z,1015.1986
2019-04-28T04:15:23.906Z,1015.2173
2019-04-28T04:16:34.918Z,1015.2156
2019-04-28T04:17:34.271Z,1015.1782
2019-04-28T04:18:45.296Z,1015.2284
2019-04-28T04:19:44.482Z,1015.1662
2019-04-28T04:20:43.696Z,1015.1918
2019-04-28T04:20:55.532Z,1015.2016
2019-04-28T04:21:54.719Z,1015.1814
2019-04-28T04:22:53.936Z,1015.205
2019-04-28T04:24:04.984Z,1015.1423
2019-04-28T04:25:04.174Z,1015.1774
2019-04-28T04:26:15.203Z,1015.2357
2019-04-28T04:27:14.397Z,1015.1656
2019-04-28T04:28:13.662Z,1015.1864
2019-04-28T04:28:25.498Z,1015.1831
2019-04-28T04:29:24.708Z,1015.1709
2019-04-28T04:30:23.912Z,1015.2033
2019-04-28T04:31:34.943Z,1015.2131
2019-04-28T04:32:35.126Z,1015.2309
2019-04-28T04:33:34.482Z,1015.2065
2019-04-28T04:34:33.660Z,1015.2256
2019-04-28T04:34:45.505Z,1015.2821
2019-04-28T04:36:44.926Z,1015.3156
2019-04-28T04:37:44.147Z,1015.294
2019-04-28T04:38:55.234Z,1015.3136
2019-04-28T04:39:55.432Z,1015.2558
2019-04-28T04:40:54.625Z,1015.2578
2019-04-28T04:41:53.825Z,1015.3261
2019-04-28T04:42:05.672Z,1015.3242
2019-04-28T04:43:04.892Z,1015.2857
2019-04-28T04:44:04.174Z,1015.2796
2019-04-28T04:45:15.212Z,1015.2868
2019-04-28T04:46:14.640Z,1015.255
2019-04-28T04:47:25.446Z,1015.2629
2019-04-28T04:48:24.673Z,1015.2823
2019-04-28T04:49:23.863Z,1015.2762
2019-04-28T04:49:35.727Z,1015.2684
2019-04-28T04:50:35.408Z,1015.2711
2019-04-28T04:51:34.989Z,1015.2945
2019-04-28T04:52:34.440Z,1015.3261
2019-04-28T04:53:35.064Z,1015.3125
2019-04-28T04:54:36.771Z,1015.3912
2019-04-28T04:55:35.115Z,1015.4298
2019-04-28T04:56:34.564Z,1015.4406
2019-04-28T04:57:33.964Z,1015.4121
2019-04-28T04:58:45.218Z,1015.4621
2019-04-28T04:59:44.665Z,1015.4815
2019-04-28T05:00:45.036Z,1015.4869
2019-04-28T05:01:44.499Z,1015.5187
2019-04-28T05:02:50.951Z,1015.5556
2019-04-28T05:03:44.418Z,1015.5384
2019-04-28T05:04:43.870Z,1015.5324
2019-04-28T05:04:55.730Z,1015.5254
2019-04-28T05:05:55.257Z,1015.5769
2019-04-28T05:06:54.774Z,1015.4916
2019-04-28T05:07:54.191Z,1015.5012
2019-04-28T05:09:05.494Z,1015.5754
2019-04-28T05:10:04.938Z,1015.5684
2019-04-28T05:11:04.364Z,1015.592
2019-04-28T05:12:04.951Z,1015.5748
2019-04-28T05:13:04.436Z,1015.5733
2019-04-28T05:14:03.830Z,1015.6235
2019-04-28T05:15:15.322Z,1015.6347
2019-04-28T05:16:14.724Z,1015.6459
2019-04-28T05:17:14.217Z,1015.7006
2019-04-28T05:18:13.703Z,1015.6914
2019-04-28T05:18:25.552Z,1015.6995
2019-04-28T05:19:24.918Z,1015.7036
2019-04-28T05:20:24.352Z,1015.7227
2019-04-28T05:21:23.751Z,1015.7268
2019-04-28T05:21:35.662Z,1015.7689
2019-04-28T05:22:35.139Z,1015.7597
2019-04-28T05:23:34.637Z,1015.7651
2019-04-28T05:24:34.102Z,1015.7899
2019-04-28T05:25:45.314Z,1015.7812
2019-04-28T05:26:47.409Z,1015.7899
2019-04-28T05:27:45.307Z,1015.7988
2019-04-28T05:28:51.328Z,1015.8468
2019-04-28T05:29:45.055Z,1015.859
2019-04-28T05:30:45.374Z,1015.8728
2019-04-28T05:31:44.947Z,1015.8917
2019-04-28T05:32:49.461Z,1015.9054
2019-04-28T05:33:44.844Z,1015.8837
2019-04-28T05:34:46.443Z,1015.9252
2019-04-28T05:35:44.662Z,1015.9051
2019-04-28T05:36:44.733Z,1015.9015
2019-04-28T05:37:55.401Z,1015.9484
2019-04-28T05:38:54.908Z,1015.938
2019-04-28T05:39:54.469Z,1015.9848
2019-04-28T05:40:53.992Z,1015.9741
2019-04-28T05:42:05.264Z,1016.031
2019-04-28T05:43:04.654Z,1016.0683
2019-04-28T05:44:04.146Z,1016.0304
2019-04-28T05:45:03.620Z,1016.0302
2019-04-28T05:45:15.460Z,1016.0266
2019-04-28T05:46:15.004Z,1016.0437
2019-04-28T05:47:14.586Z,1016.0415
2019-04-28T05:48:14.005Z,1016.0979
2019-04-28T05:49:25.286Z,1016.1132
2019-04-28T05:50:24.933Z,1016.0672
2019-04-28T05:51:24.478Z,1016.0868
2019-04-28T05:52:23.824Z,1016.1074
2019-04-28T05:52:35.721Z,1016.1026
2019-04-28T05:53:35.120Z,1016.102
2019-04-28T05:54:34.556Z,1016.1046
2019-04-28T05:55:34.026Z,1016.1041
2019-04-28T05:56:45.233Z,1016.1113
2019-04-28T05:57:44.591Z,1016.1301
2019-04-28T05:58:44.115Z,1016.1716
2019-04-28T06:00:44.003Z,1016.1891
2019-04-28T06:01:55.312Z,1016.1914
2019-04-28T06:02:56.798Z,1016.1777
2019-04-28T06:03:55.222Z,1016.1987
2019-04-28T06:04:54.664Z,1016.2079
2019-04-28T06:05:56.839Z,1016.222
2019-04-28T06:06:54.691Z,1016.2048
2019-04-28T06:07:54.054Z,1016.1881
2019-04-28T06:09:05.377Z,1016.1937
2019-04-28T06:10:04.862Z,1016.2291
2019-04-28T06:11:04.378Z,1016.1909
2019-04-28T06:12:03.905Z,1016.2089
2019-04-28T06:13:15.204Z,1016.2171
2019-04-28T06:14:14.726Z,1016.2224
2019-04-28T06:15:14.139Z,1016.2245
2019-04-28T06:16:25.338Z,1016.2863
2019-04-28T06:17:24.871Z,1016.2658
2019-04-28T06:18:24.281Z,1016.2907
2019-04-28T06:19:23.663Z,1016.3166
2019-04-28T06:19:35.621Z,1016.3087
2019-04-28T06:20:35.089Z,1016.3303
2019-04-28T06:21:34.548Z,1016.35
2019-04-28T06:22:34.027Z,1016.3765
2019-04-28T06:23:45.387Z,1016.4115
2019-04-28T06:24:44.776Z,1016.4611
2019-04-28T06:25:44.274Z,1016.4306
2019-04-28T06:26:43.863Z,1016.4459
2019-04-28T06:26:55.688Z,1016.4295
2019-04-28T06:27:55.131Z,1016.4982
2019-04-28T06:28:54.586Z,1016.515
2019-04-28T06:29:54.012Z,1016.4456
2019-04-28T06:31:05.230Z,1016.4831
2019-04-28T06:32:04.678Z,1016.5031
2019-04-28T06:33:07.813Z,1016.5037
2019-04-28T06:34:04.770Z,1016.5708
2019-04-28T06:35:04.219Z,1016.5222
2019-04-28T06:36:03.643Z,1016.5471
2019-04-28T06:36:15.589Z,1016.5811
2019-04-28T06:37:14.996Z,1016.5769
2019-04-28T06:38:14.552Z,1016.53
2019-04-28T06:39:14.031Z,1016.5653
2019-04-28T06:40:25.174Z,1016.6093
2019-04-28T06:41:24.629Z,1016.5837
2019-04-28T06:42:24.012Z,1016.5889
2019-04-28T06:43:35.440Z,1016.6133
2019-04-28T06:44:34.956Z,1016.6021
2019-04-28T06:45:34.403Z,1016.6379
2019-04-28T06:46:33.733Z,1016.6595
2019-04-28T06:46:45.583Z,1016.6604
2019-04-28T06:47:44.983Z,1016.6406
2019-04-28T06:48:44.512Z,1016.6826
2019-04-28T06:49:43.876Z,1016.6681
2019-04-28T06:50:55.418Z,1016.6823
2019-04-28T06:51:54.802Z,1016.6673
2019-04-28T06:52:54.387Z,1016.6624
2019-04-28T06:53:53.803Z,1016.6807
2019-04-28T06:54:05.663Z,1016.6557
2019-04-28T06:55:04.941Z,1016.6784
2019-04-28T06:56:04.382Z,1016.6892
2019-04-28T06:57:03.781Z,1016.6693
2019-04-28T06:57:15.653Z,1016.7062
2019-04-28T06:58:15.354Z,1016.6679
2019-04-28T06:59:14.778Z,1016.673
2019-04-28T07:00:14.203Z,1016.7081
2019-04-28T07:01:25.390Z,1016.7126
2019-04-28T07:02:24.823Z,1016.7335
2019-04-28T07:03:24.663Z,1016.7965
2019-04-28T07:04:24.578Z,1016.7809
2019-04-28T07:05:24.493Z,1016.7814
2019-04-28T07:06:24.419Z,1016.8049
2019-04-28T07:07:24.247Z,1016.8192
2019-04-28T07:08:24.063Z,1016.7951
2019-04-28T07:09:23.864Z,1016.859
2019-04-28T07:09:35.695Z,1016.8455
2019-04-28T07:10:35.432Z,1016.8709
2019-04-28T07:11:35.291Z,1016.8605
2019-04-28T07:12:35.086Z,1016.8929
2019-04-28T07:13:34.902Z,1016.9352
2019-04-28T07:14:35.684Z,1016.926
2019-04-28T07:15:35.544Z,1016.9263
2019-04-28T07:16:35.362Z,1016.8915
2019-04-28T07:17:35.184Z,1016.8903
2019-04-28T07:18:35.046Z,1016.925
2019-04-28T07:19:34.855Z,1016.9353
2019-04-28T07:20:34.607Z,1016.9176
2019-04-28T07:21:34.174Z,1016.8966
2019-04-28T07:22:45.436Z,1016.9051
2019-04-28T07:23:44.741Z,1016.9117
2019-04-28T07:24:44.907Z,1016.9601
2019-04-28T07:25:43.850Z,1016.9578
2019-04-28T07:25:55.695Z,1016.9678
2019-04-28T07:26:54.920Z,1016.9466
2019-04-28T07:27:54.348Z,1016.9551
2019-04-28T07:28:53.785Z,1016.9884
2019-04-28T07:30:05.104Z,1016.9735
2019-04-28T07:31:04.355Z,1016.9409
2019-04-28T07:32:04.628Z,1016.9749
2019-04-28T07:33:03.940Z,1016.9866
2019-04-28T07:34:14.949Z,1016.9713
2019-04-28T07:35:14.217Z,1017.0007
2019-04-28T07:36:25.338Z,1017.0034
2019-04-28T07:37:24.613Z,1017.0312
2019-04-28T07:38:24.030Z,1017.0431
2019-04-28T07:39:35.322Z,1017.0444
2019-04-28T07:40:34.726Z,1017.106
2019-04-28T07:41:35.127Z,1017.064
2019-04-28T07:42:34.377Z,1017.1173
2019-04-28T07:43:45.417Z,1017.1366
2019-04-28T07:44:44.608Z,1017.1187
2019-04-28T07:45:43.881Z,1017.0463
2019-04-28T07:45:55.748Z,1017.0875
2019-04-28T07:46:54.174Z,1017.1129
2019-04-28T07:48:05.221Z,1017.0845
2019-04-28T07:49:04.435Z,1017.0825
2019-04-28T07:50:03.664Z,1017.0836
2019-04-28T07:50:15.525Z,1017.1054
2019-04-28T07:51:14.791Z,1017.0889
2019-04-28T07:52:14.076Z,1017.0964
2019-04-28T07:53:25.196Z,1017.1436
2019-04-28T07:54:24.428Z,1017.1579
2019-04-28T07:55:23.614Z,1017.1718
2019-04-28T07:55:35.585Z,1017.168
2019-04-28T07:56:34.820Z,1017.1967
2019-04-28T07:57:34.010Z,1017.1732
2019-04-28T07:58:45.053Z,1017.1838
2019-04-28T07:59:44.238Z,1017.1967
2019-04-28T08:00:55.350Z,1017.1564
2019-04-28T08:01:54.530Z,1017.2026
2019-04-28T08:02:53.751Z,1017.1997
2019-04-28T08:03:05.591Z,1017.1932
2019-04-28T08:04:04.792Z,1017.1603
2019-04-28T08:05:03.984Z,1017.2203
2019-04-28T08:06:15.087Z,1017.265
2019-04-28T08:07:14.264Z,1017.2282
2019-04-28T08:08:14.477Z,1017.2313
2019-04-28T08:09:13.658Z,1017.2376
2019-04-28T08:09:25.498Z,1017.2228
2019-04-28T08:10:24.728Z,1017.2625
2019-04-28T08:11:24.150Z,1017.2565
2019-04-28T08:12:35.188Z,1017.2452
2019-04-28T08:13:34.417Z,1017.2803
2019-04-28T08:14:33.623Z,1017.277
2019-04-28T08:14:45.464Z,1017.2775
2019-04-28T08:15:44.662Z,1017.2765
2019-04-28T08:16:43.855Z,1017.27
2019-04-28T08:16:55.693Z,1017.2707
2019-04-28T08:17:54.887Z,1017.3055
2019-04-28T08:18:54.058Z,1017.2954
2019-04-28T08:20:05.719Z,1017.3193
2019-04-28T08:21:04.260Z,1017.3359
2019-04-28T08:22:15.288Z,1017.3114
2019-04-28T08:23:14.485Z,1017.3331
2019-04-28T08:24:14.760Z,1017.3206
2019-04-28T08:25:13.945Z,1017.335
2019-04-28T08:26:24.955Z,1017.3812
2019-04-28T08:27:24.124Z,1017.3997
2019-04-28T08:28:35.142Z,1017.3906
2019-04-28T08:29:34.312Z,1017.4312
2019-04-28T08:30:45.307Z,1017.4617
2019-04-28T08:31:44.496Z,1017.4398
2019-04-28T08:32:43.705Z,1017.5026
2019-04-28T08:32:55.537Z,1017.4765
2019-04-28T08:34:02.006Z,1017.5242
2019-04-28T08:34:55.046Z,1017.5153
2019-04-28T08:35:54.600Z,1017.5612
2019-04-28T08:36:53.803Z,1017.5558
2019-04-28T08:37:05.661Z,1017.5278
2019-04-28T08:38:05.240Z,1017.5218
2019-04-28T08:39:04.575Z,1017.5836
2019-04-28T08:40:03.764Z,1017.5456
2019-04-28T08:40:15.598Z,1017.5659
2019-04-28T08:41:14.783Z,1017.5686
2019-04-28T08:42:13.983Z,1017.5543
2019-04-28T08:43:25.035Z,1017.6235
2019-04-28T08:44:24.280Z,1017.6796
2019-04-28T08:45:35.312Z,1017.6932
2019-04-28T08:46:34.555Z,1017.7181
2019-04-28T08:47:33.816Z,1017.7326
2019-04-28T08:47:45.657Z,1017.7465
2019-04-28T08:48:45.045Z,1017.726
2019-04-28T08:49:44.247Z,1017.7277
2019-04-28T08:50:55.415Z,1017.7673
2019-04-28T08:51:54.650Z,1017.7548
2019-04-28T08:52:53.848Z,1017.7801
2019-04-28T08:53:05.690Z,1017.7438
2019-04-28T08:54:04.958Z,1017.7837
2019-04-28T08:55:04.141Z,1017.8134
2019-04-28T08:56:15.280Z,1017.7943
2019-04-28T08:57:14.476Z,1017.8262
2019-04-28T08:58:13.692Z,1017.8506
2019-04-28T08:58:25.543Z,1017.8089
2019-04-28T08:59:24.768Z,1017.858
2019-04-28T09:00:23.993Z,1017.824
2019-04-28T09:01:35.038Z,1017.8396
2019-04-28T09:02:34.233Z,1017.8195
2019-04-28T09:03:45.260Z,1017.813
2019-04-28T09:04:44.500Z,1017.8406
2019-04-28T09:05:43.775Z,1017.8435
2019-04-28T09:05:55.620Z,1017.8595
2019-04-28T09:06:54.830Z,1017.876
2019-04-28T09:07:55.039Z,1017.8993
2019-04-28T09:08:54.221Z,1017.9418
2019-04-28T09:10:05.286Z,1017.9854
2019-04-28T09:11:04.497Z,1018.007
2019-04-28T09:12:03.711Z,1017.9773
2019-04-28T09:12:15.569Z,1017.9916
2019-04-28T09:13:14.811Z,1017.9943
2019-04-28T09:14:14.014Z,1018.0222
2019-04-28T09:15:25.108Z,1017.9901
2019-04-28T09:16:24.315Z,1018.0024
2019-04-28T09:17:35.432Z,1018.0245
2019-04-28T09:18:34.649Z,1018.0499
2019-04-28T09:19:33.841Z,1018.046
2019-04-28T09:19:45.685Z,1018.0522
2019-04-28T09:20:44.897Z,1018.0892
2019-04-28T09:21:44.117Z,1018.1376
2019-04-28T09:22:55.185Z,1018.1151
2019-04-28T09:23:54.382Z,1018.1715
2019-04-28T09:25:05.430Z,1018.0839
2019-04-28T09:26:04.640Z,1018.1606
2019-04-28T09:27:03.868Z,1018.145
2019-04-28T09:27:15.705Z,1018.1237
2019-04-28T09:28:14.911Z,1018.1264
2019-04-28T09:29:14.110Z,1018.1551
2019-04-28T09:30:25.158Z,1018.1733
2019-04-28T09:31:24.380Z,1018.2179
2019-04-28T09:32:35.448Z,1018.2295
2019-04-28T09:33:34.689Z,1018.2052
2019-04-28T09:34:33.878Z,1018.2514
2019-04-28T09:34:45.715Z,1018.2658
2019-04-28T09:35:44.960Z,1018.2493
2019-04-28T09:36:45.127Z,1018.2703
2019-04-28T09:37:44.477Z,1018.2742
2019-04-28T09:38:44.663Z,1018.2274
2019-04-28T09:39:43.852Z,1018.2379
2019-04-28T09:39:55.689Z,1018.2438
2019-04-28T09:40:54.888Z,1018.2559
2019-04-28T09:41:54.101Z,1018.2709
2019-04-28T09:43:05.181Z,1018.2672
2019-04-28T09:44:04.383Z,1018.2764
2019-04-28T09:45:15.447Z,1018.2966
2019-04-28T09:46:14.694Z,1018.2885
2019-04-28T09:47:13.902Z,1018.2831
2019-04-28T09:48:24.961Z,1018.2913
2019-04-28T09:49:24.163Z,1018.3038
2019-04-28T09:50:35.198Z,1018.315
2019-04-28T09:51:34.461Z,1018.3106
2019-04-28T09:52:33.684Z,1018.2952
2019-04-28T09:52:48.483Z,1018.3242
2019-04-28T09:53:33.849Z,1018.2803
2019-04-28T09:53:45.676Z,1018.2945
2019-04-28T09:54:44.870Z,1018.288
2019-04-28T09:55:44.087Z,1018.3414
2019-04-28T09:56:56.658Z,1018.3828
2019-04-28T09:57:55.368Z,1018.3679
2019-04-28T09:58:43.734Z,1018.3479
2019-04-28T09:58:55.568Z,1018.371
2019-04-28T09:59:54.810Z,1018.3849
2019-04-28T10:00:54.025Z,1018.3657
2019-04-28T10:02:05.251Z,1018.4301
2019-04-28T10:03:04.452Z,1018.4219
2019-04-28T10:04:03.652Z,1018.4043
2019-04-28T10:04:15.496Z,1018.4274
2019-04-28T10:05:14.692Z,1018.4454
2019-04-28T10:06:13.931Z,1018.4554
2019-04-28T10:07:14.271Z,1018.4786
2019-04-28T10:08:25.324Z,1018.4906
2019-04-28T10:09:24.512Z,1018.5507
2019-04-28T10:10:23.723Z,1018.5381
2019-04-28T10:10:35.559Z,1018.4902
2019-04-28T10:11:34.785Z,1018.5006
2019-04-28T10:12:34.006Z,1018.5424
2019-04-28T10:13:45.048Z,1018.5558
2019-04-28T10:14:44.234Z,1018.5645
2019-04-28T10:15:55.310Z,1018.5832
2019-04-28T10:16:54.510Z,1018.6262
2019-04-28T10:17:53.843Z,1018.6076
2019-04-28T10:18:05.690Z,1018.614
2019-04-28T10:19:04.901Z,1018.602
2019-04-28T10:20:04.119Z,1018.6607
2019-04-28T10:21:15.150Z,1018.6874
2019-04-28T10:22:14.412Z,1018.6802
2019-04-28T10:23:14.149Z,1018.6785
2019-04-28T10:25:25.394Z,1018.6956
2019-04-28T10:26:24.611Z,1018.7126
2019-04-28T10:27:23.817Z,1018.6906
2019-04-28T10:27:35.686Z,1018.7167
2019-04-28T10:28:34.979Z,1018.7575
2019-04-28T10:29:34.410Z,1018.7586
2019-04-28T10:30:33.747Z,1018.7937
2019-04-28T10:30:45.644Z,1018.7673
2019-04-28T10:31:44.961Z,1018.8032
2019-04-28T10:32:44.256Z,1018.781
2019-04-28T10:33:55.407Z,1018.7801
2019-04-28T10:34:55.343Z,1018.8451
2019-04-28T10:35:53.853Z,1018.8495
2019-04-28T10:36:05.699Z,1018.8396
2019-04-28T10:37:04.955Z,1018.8572
2019-04-28T10:38:04.211Z,1018.8936
2019-04-28T10:39:15.363Z,1018.9222
2019-04-28T10:40:14.676Z,1018.9167
2019-04-28T10:41:13.889Z,1018.9288
2019-04-28T10:41:25.725Z,1018.8996
2019-04-28T10:42:24.988Z,1018.9187
2019-04-28T10:43:24.265Z,1018.9486
2019-04-28T10:44:35.369Z,1018.9699